Time;durP1;ratioP1;P1;durP2;ratioP2;P2;SDS_P1;SDS_P2;PMS_P1;PMS_P2;Temp;Humidity;BMP_temperature;BMP_pressure;BME280_temperature;BME280_humidity;BME280_pressure;Samples;Min_cycle;Max_cycle;Signal;HPM_P1;HPM_P2
2023/01/31 00:01:11;;;;;;;14.40;8.60;;;;;;;1.59;91.99;98786.52;103285;1251;138125;-75
2023/01/31 00:03:39;;;;;;;18.50;8.90;;;;;;;1.60;92.12;98795.40;103430;1251;108410;-74
2023/01/31 00:06:18;;;;;;;17.30;8.50;;;;;;;1.62;92.10;98793.67;102802;1251;1002955;-74
2023/01/31 00:08:46;;;;;;;18.10;8.80;;;;;;;1.63;92.05;98795.71;103412;1255;138094;-74
2023/01/31 00:11:14;;;;;;;17.80;8.40;;;;;;;1.64;92.00;98797.23;103446;1251;107423;-75
2023/01/31 00:13:42;;;;;;;15.80;8.30;;;;;;;1.65;92.09;98807.16;103347;1252;137877;-75
2023/01/31 00:16:10;;;;;;;17.80;8.50;;;;;;;1.65;92.01;98806.81;103378;1252;107075;-74
2023/01/31 00:18:38;;;;;;;16.40;7.40;;;;;;;1.66;91.97;98810.73;103438;1252;96723;-74
2023/01/31 00:21:12;;;;;;;16.00;8.30;;;;;;;1.66;91.92;98805.92;103263;1256;137774;-74
2023/01/31 00:23:40;;;;;;;15.90;8.20;;;;;;;1.67;91.89;98811.90;103543;1254;106861;-74
2023/01/31 00:26:12;;;;;;;15.60;8.50;;;;;;;1.68;91.91;98816.69;103259;1256;137785;-74
2023/01/31 00:28:40;;;;;;;15.60;8.80;;;;;;;1.68;91.97;98819.25;102596;1251;1003382;-75
2023/01/31 00:31:08;;;;;;;15.90;8.60;;;;;;;1.69;91.84;98818.38;103317;1254;139237;-75
2023/01/31 00:33:36;;;;;;;16.10;8.40;;;;;;;1.70;91.90;98820.92;103285;1256;108424;-74
2023/01/31 00:36:07;;;;;;;17.20;8.30;;;;;;;1.71;91.81;98825.88;103415;1252;106712;-75
2023/01/31 00:38:35;;;;;;;14.60;7.80;;;;;;;1.71;91.78;98834.27;103170;1257;137768;-75
2023/01/31 00:41:03;;;;;;;17.30;9.00;;;;;;;1.70;91.83;98834.96;103266;1252;107448;-75
2023/01/31 00:43:32;;;;;;;20.30;8.90;;;;;;;1.70;91.94;98830.70;103261;1251;139114;-75
2023/01/31 00:46:01;;;;;;;20.80;8.20;;;;;;;1.69;91.76;98834.98;103480;1251;110011;-75
2023/01/31 00:48:28;;;;;;;18.60;8.40;;;;;;;1.69;91.81;98837.38;103476;1256;107002;-75
2023/01/31 00:50:55;;;;;;;14.80;8.30;;;;;;;1.70;91.85;98843.55;102472;1251;1004049;-74
2023/01/31 00:53:23;;;;;;;16.60;8.50;;;;;;;1.69;91.80;98845.27;103264;1252;107594;-74
2023/01/31 00:55:50;;;;;;;13.80;8.00;;;;;;;1.68;91.85;98847.70;102492;1255;1003966;-75
2023/01/31 00:58:17;;;;;;;20.50;8.90;;;;;;;1.67;91.84;98861.77;103453;1251;110162;-74
2023/01/31 01:00:45;;;;;;;15.50;8.00;;;;;;;1.67;91.90;98862.45;103359;1251;108602;-76
2023/01/31 01:03:12;;;;;;;18.30;8.70;;;;;;;1.67;91.89;98860.55;102419;1256;1003586;-75
2023/01/31 01:05:39;;;;;;;15.30;8.20;;;;;;;1.68;92.08;98863.45;103232;1252;107460;-75
2023/01/31 01:08:06;;;;;;;17.60;8.00;;;;;;;1.69;92.03;98873.20;103193;1257;139840;-73
2023/01/31 01:10:33;;;;;;;18.80;8.20;;;;;;;1.70;91.91;98873.37;103366;1255;110618;-74
2023/01/31 01:13:01;;;;;;;15.10;7.60;;;;;;;1.70;92.00;98868.04;103268;1255;138783;-74
2023/01/31 01:15:28;;;;;;;16.80;7.70;;;;;;;1.70;91.90;98871.13;103450;1252;96536;-73
2023/01/31 01:17:56;;;;;;;14.00;7.80;;;;;;;1.71;92.19;98870.92;103300;1253;107984;-74
2023/01/31 01:20:23;;;;;;;13.60;7.70;;;;;;;1.71;92.01;98866.64;103048;1253;137916;-75
2023/01/31 01:22:50;;;;;;;15.70;7.80;;;;;;;1.72;92.03;98871.77;103287;1256;108345;-74
2023/01/31 01:25:17;;;;;;;12.30;7.40;;;;;;;1.72;92.08;98869.55;103197;1252;138253;-74
2023/01/31 01:27:44;;;;;;;18.50;8.10;;;;;;;1.72;92.00;98872.11;103377;1252;96444;-75
2023/01/31 01:30:13;;;;;;;12.80;6.60;;;;;;;1.72;92.08;98873.84;103414;1252;107389;-74
2023/01/31 01:32:40;;;;;;;17.30;7.90;;;;;;;1.71;92.02;98875.73;103930;1252;137809;-74
2023/01/31 01:35:08;;;;;;;16.70;8.30;;;;;;;1.70;91.97;98876.10;103422;1256;109442;-76
2023/01/31 01:37:36;;;;;;;17.90;7.20;;;;;;;1.70;92.12;98876.79;103309;1256;139074;-75
2023/01/31 01:40:03;;;;;;;18.60;8.30;;;;;;;1.69;92.00;98881.94;103414;1252;96460;-75
2023/01/31 01:42:35;;;;;;;17.50;7.80;;;;;;;1.69;92.10;98886.91;103403;1252;107755;-75
2023/01/31 01:45:04;;;;;;;16.80;8.10;;;;;;;1.68;92.13;98885.38;103365;1251;137768;-75
2023/01/31 01:47:43;;;;;;;15.30;7.20;;;;;;;1.67;92.12;98883.86;103450;1251;110125;-73
2023/01/31 01:50:19;;;;;;;17.60;8.70;;;;;;;1.67;92.11;98898.27;103181;1252;137780;-73
2023/01/31 01:52:50;;;;;;;15.40;7.80;;;;;;;1.66;92.27;98897.76;103335;1254;96509;-73
2023/01/31 01:55:23;;;;;;;16.10;7.70;;;;;;;1.66;92.24;98905.98;103179;1251;139023;-73
2023/01/31 01:57:54;;;;;;;17.10;8.20;;;;;;;1.67;92.35;98904.77;103429;1256;96617;-74
2023/01/31 02:00:24;;;;;;;16.60;8.30;;;;;;;1.68;92.38;98908.70;103475;1254;110062;-73
2023/01/31 02:02:56;;;;;;;18.70;8.00;;;;;;;1.68;92.36;98907.49;103264;1253;137820;-73
2023/01/31 02:05:28;;;;;;;18.50;8.20;;;;;;;1.68;92.39;98912.63;103476;1251;96980;-74
2023/01/31 02:07:56;;;;;;;17.20;8.70;;;;;;;1.69;92.37;98914.50;103277;1252;138797;-74
2023/01/31 02:10:28;;;;;;;17.00;7.60;;;;;;;1.69;92.34;98913.48;103323;1257;96501;-74
2023/01/31 02:12:55;;;;;;;16.20;8.30;;;;;;;1.69;92.33;98923.23;103300;1251;138035;-75
2023/01/31 02:15:23;;;;;;;15.20;8.10;;;;;;;1.69;92.38;98928.54;103436;1253;107548;-74
2023/01/31 02:17:51;;;;;;;21.80;7.70;;;;;;;1.70;92.42;98931.45;103489;1251;96498;-73
2023/01/31 02:20:40;;;;;;;12.10;7.30;;;;;;;1.70;92.44;98940.52;102425;1252;1003545;-74
2023/01/31 02:23:39;;;;;;;15.10;7.80;;;;;;;1.72;92.36;98951.45;103258;1252;97329;-73
2023/01/31 02:26:32;;;;;;;14.70;6.80;;;;;;;1.73;92.18;98952.64;102974;1260;137943;-74
2023/01/31 02:29:23;;;;;;;18.80;6.90;;;;;;;1.74;92.23;98954.83;102330;1260;1002853;-73
2023/01/31 02:32:03;;;;;;;15.80;6.60;;;;;;;1.76;92.31;98956.34;103051;1255;139547;-74
2023/01/31 02:34:38;;;;;;;17.40;6.80;;;;;;;1.76;92.19;98965.25;103140;1256;107986;-75
2023/01/31 02:37:17;;;;;;;17.10;6.40;;;;;;;1.76;92.00;98967.48;102901;1255;139121;-74
2023/01/31 02:39:53;;;;;;;12.70;5.90;;;;;;;1.76;91.99;98966.11;102958;1256;109627;-74
2023/01/31 02:42:29;;;;;;;14.10;7.00;;;;;;;1.77;92.05;98971.73;102942;1260;107993;-73
2023/01/31 02:45:05;;;;;;;12.40;6.30;;;;;;;1.78;91.84;98970.19;102942;1256;139290;-74
2023/01/31 02:47:49;;;;;;;16.60;6.70;;;;;;;1.78;91.79;98970.01;103090;1257;107134;-74
2023/01/31 02:50:24;;;;;;;13.30;5.50;;;;;;;1.78;91.82;98981.31;102956;1256;138017;-74
2023/01/31 02:52:57;;;;;;;17.70;6.00;;;;;;;1.79;91.98;98995.19;103061;1256;110233;-74
2023/01/31 02:58:20;;;;;;;16.60;5.60;;;;;;;1.82;91.75;98998.94;103123;1259;96618;-74
2023/01/31 03:00:48;;;;;;;15.30;5.80;;;;;;;1.82;91.62;99006.48;102984;1257;107311;-74
2023/01/31 03:03:22;;;;;;;15.70;6.20;;;;;;;1.83;91.65;99009.04;102334;1259;1002823;-74
2023/01/31 03:06:25;;;;;;;18.90;6.60;;;;;;;1.85;91.69;99014.15;103371;1253;110088;-74
2023/01/31 03:08:57;;;;;;;15.30;5.70;;;;;;;1.87;91.71;99015.46;102234;1258;1002726;-74
2023/01/31 03:11:29;;;;;;;18.90;6.20;;;;;;;1.90;91.69;99023.65;103209;1257;97075;-74
2023/01/31 03:14:03;;;;;;;14.70;5.80;;;;;;;1.92;91.47;99031.67;103259;1253;137800;-74
2023/01/31 03:19:27;;;;;;;14.90;5.60;;;;;;;1.96;91.40;99038.79;103290;1253;137989;-74
2023/01/31 03:22:00;;;;;;;15.70;5.20;;;;;;;1.98;91.41;99047.17;103282;1257;107697;-74
2023/01/31 03:24:29;;;;;;;20.90;5.10;;;;;;;1.98;91.09;99049.22;103284;1257;96347;-74
2023/01/31 03:26:58;;;;;;;16.70;4.90;;;;;;;1.99;91.14;99053.67;103303;1251;137806;-74
2023/01/31 03:29:28;;;;;;;20.30;5.30;;;;;;;1.99;91.05;99055.73;103706;1251;96410;-74
2023/01/31 03:32:02;;;;;;;17.90;5.80;;;;;;;2.00;90.90;99065.30;103291;1253;138843;-74
2023/01/31 03:34:29;;;;;;;14.30;4.60;;;;;;;2.01;90.72;99066.16;102630;1251;1003450;-74
2023/01/31 03:37:03;;;;;;;18.90;5.10;;;;;;;2.01;90.68;99072.15;103389;1256;138489;-74
2023/01/31 03:39:43;;;;;;;16.80;4.40;;;;;;;2.02;90.76;99072.66;102663;1256;1002728;-74
2023/01/31 03:42:17;;;;;;;17.60;5.30;;;;;;;2.01;90.47;99076.26;103307;1256;96441;-74
2023/01/31 03:44:54;;;;;;;15.20;4.70;;;;;;;2.00;90.46;99071.48;103212;1256;139767;-74
2023/01/31 03:47:26;;;;;;;18.30;4.60;;;;;;;2.00;90.39;99074.05;103233;1252;108193;-74
2023/01/31 03:49:55;;;;;;;20.40;5.60;;;;;;;1.99;90.29;99077.16;103141;1251;1002716;-74
2023/01/31 03:52:30;;;;;;;18.00;4.60;;;;;;;1.99;90.33;99075.63;103757;1253;107070;-74
2023/01/31 03:55:02;;;;;;;15.50;4.90;;;;;;;1.99;90.31;99069.61;103261;1251;141597;-74
2023/01/31 03:57:35;;;;;;;14.20;4.60;;;;;;;1.98;90.35;99070.14;102588;1252;1003087;-74
2023/01/31 04:00:06;;;;;;;13.30;4.60;;;;;;;1.98;90.01;99072.55;102508;1252;1003061;-74
2023/01/31 04:02:42;;;;;;;15.20;5.10;;;;;;;1.98;90.20;99078.20;103134;1257;139744;-74
2023/01/31 04:05:16;;;;;;;20.00;4.40;;;;;;;1.99;90.12;99080.41;103589;1252;106954;-75
2023/01/31 04:07:44;;;;;;;16.30;4.30;;;;;;;2.00;90.02;99083.15;103189;1252;138452;-75
2023/01/31 04:10:19;;;;;;;26.10;4.70;;;;;;;1.99;89.91;99081.96;103293;1252;109922;-75
2023/01/31 04:12:46;;;;;;;17.40;4.70;;;;;;;1.98;89.80;99083.16;102518;1252;1015631;-74
2023/01/31 04:15:15;;;;;;;17.60;4.20;;;;;;;1.99;89.59;99084.70;103376;1252;96448;-75
2023/01/31 04:17:42;;;;;;;19.20;4.60;;;;;;;2.00;89.75;99090.68;103294;1252;107978;-75
2023/01/31 04:20:12;;;;;;;27.20;4.90;;;;;;;2.01;89.65;99086.91;103345;1256;137820;-75
2023/01/31 04:22:38;;;;;;;20.80;4.40;;;;;;;2.00;89.35;99088.46;103685;1252;109611;-74
2023/01/31 04:25:07;;;;;;;19.10;4.80;;;;;;;1.98;89.09;99095.17;103302;1253;139081;-76
2023/01/31 04:27:34;;;;;;;17.70;3.70;;;;;;;1.97;89.18;99101.17;103391;1256;96448;-75
2023/01/31 04:30:01;;;;;;;21.60;4.10;;;;;;;1.95;89.12;99106.17;103343;1257;109065;-75
2023/01/31 04:32:28;;;;;;;21.60;4.20;;;;;;;1.94;89.07;99104.98;103190;1252;138261;-74
2023/01/31 04:34:55;;;;;;;24.40;5.50;;;;;;;1.94;89.04;99114.94;103256;1257;109291;-75
2023/01/31 04:37:22;;;;;;;21.60;4.60;;;;;;;1.94;89.10;99119.58;103117;1252;138036;-75
2023/01/31 04:39:49;;;;;;;20.10;4.00;;;;;;;1.93;89.14;99121.46;102542;1255;1003210;-75
2023/01/31 04:42:16;;;;;;;21.70;4.40;;;;;;;1.92;88.80;99128.85;103267;1252;106825;-74
2023/01/31 04:44:43;;;;;;;22.90;4.50;;;;;;;1.92;88.81;99132.63;101690;1252;1016408;-74
2023/01/31 04:47:10;;;;;;;21.70;4.20;;;;;;;1.90;88.65;99128.38;103224;1252;110076;-75
2023/01/31 04:49:37;;;;;;;16.40;4.00;;;;;;;1.90;88.62;99137.98;103184;1251;138636;-75
2023/01/31 04:52:04;;;;;;;20.60;4.50;;;;;;;1.88;88.56;99136.28;103430;1251;97186;-75
2023/01/31 04:54:31;;;;;;;22.40;4.40;;;;;;;1.88;88.59;99136.98;103491;1256;109006;-74
2023/01/31 04:56:58;;;;;;;18.00;4.60;;;;;;;1.89;88.65;99144.50;103296;1251;138702;-75
2023/01/31 04:59:25;;;;;;;20.70;4.80;;;;;;;1.91;88.37;99143.45;103467;1256;110222;-74
2023/01/31 05:01:52;;;;;;;29.10;4.90;;;;;;;1.92;88.46;99146.00;103099;1253;137812;-76
2023/01/31 05:04:20;;;;;;;16.90;4.00;;;;;;;1.93;88.52;99150.95;103233;1255;96440;-76
2023/01/31 05:06:47;;;;;;;18.10;4.60;;;;;;;1.95;88.22;99155.04;103265;1257;106643;-74
2023/01/31 05:09:15;;;;;;;15.80;3.90;;;;;;;1.96;88.17;99159.64;103401;1252;96804;-74
2023/01/31 05:11:42;;;;;;;22.00;5.00;;;;;;;1.97;88.12;99168.20;103328;1255;110840;-75
2023/01/31 05:14:09;;;;;;;19.80;4.20;;;;;;;1.99;87.98;99170.44;102430;1252;1003286;-74
2023/01/31 05:16:36;;;;;;;17.90;4.60;;;;;;;1.99;87.75;99173.67;103381;1252;96944;-74
2023/01/31 05:19:03;;;;;;;22.60;5.60;;;;;;;2.01;87.91;99182.91;103152;1256;138537;-75
2023/01/31 05:21:53;;;;;;;19.60;4.20;;;;;;;2.01;88.01;99185.99;103354;1256;96529;-74
2023/01/31 05:24:19;;;;;;;16.60;4.50;;;;;;;2.03;87.82;99186.48;103357;1256;110833;-74
2023/01/31 05:26:46;;;;;;;21.60;3.60;;;;;;;2.03;87.70;99194.02;103238;1252;139186;-74
2023/01/31 05:29:13;;;;;;;21.80;4.90;;;;;;;2.03;87.54;99198.64;103420;1252;96773;-74
2023/01/31 05:31:40;;;;;;;17.30;3.80;;;;;;;2.03;87.57;99198.98;103272;1252;137592;-73
2023/01/31 05:34:09;;;;;;;18.30;3.70;;;;;;;2.03;87.49;99202.92;102873;1252;1002966;-73
2023/01/31 05:36:36;;;;;;;18.60;3.70;;;;;;;2.04;87.27;99210.46;103421;1252;109733;-73
2023/01/31 05:39:03;;;;;;;24.60;4.40;;;;;;;2.04;87.30;99222.62;103253;1252;139444;-74
2023/01/31 05:41:30;;;;;;;17.40;3.50;;;;;;;2.05;87.28;99222.44;103348;1256;96944;-73
2023/01/31 05:43:57;;;;;;;19.20;3.70;;;;;;;2.06;87.28;99230.83;103253;1252;138537;-74
2023/01/31 05:46:24;;;;;;;21.40;4.10;;;;;;;2.07;87.13;99232.69;103427;1252;96544;-74
2023/01/31 05:48:52;;;;;;;21.70;4.80;;;;;;;2.07;87.06;99235.44;103335;1252;108957;-75
2023/01/31 05:51:19;;;;;;;28.00;6.80;;;;;;;2.08;86.92;99240.58;103287;1252;106925;-74
2023/01/31 05:53:46;;;;;;;21.00;5.40;;;;;;;2.08;86.99;99249.31;103300;1256;96442;-74
2023/01/31 05:56:13;;;;;;;19.50;4.40;;;;;;;2.08;86.91;99255.14;103232;1256;137829;-74
2023/01/31 05:58:40;;;;;;;19.70;5.30;;;;;;;2.09;86.76;99257.70;103415;1253;96473;-75
2023/01/31 06:01:07;;;;;;;23.80;5.00;;;;;;;2.09;86.63;99259.94;103377;1251;137782;-75
2023/01/31 06:03:34;;;;;;;19.60;4.70;;;;;;;2.08;86.51;99260.80;102622;1256;1002954;-74
2023/01/31 06:06:02;;;;;;;18.90;4.80;;;;;;;2.07;86.49;99260.98;102742;1253;1003828;-74
2023/01/31 06:08:30;;;;;;;18.90;4.70;;;;;;;2.06;86.44;99270.95;103272;1252;139525;-74
2023/01/31 06:11:00;;;;;;;20.20;4.10;;;;;;;2.05;86.25;99278.52;102655;1253;1002702;-73
2023/01/31 06:13:27;;;;;;;20.00;3.90;;;;;;;2.03;86.42;99282.83;103213;1252;138378;-74
2023/01/31 06:15:55;;;;;;;19.40;5.10;;;;;;;2.01;86.38;99287.65;103268;1252;107711;-75
2023/01/31 06:18:22;;;;;;;17.10;3.90;;;;;;;2.01;86.38;99291.94;102602;1252;1003280;-75
2023/01/31 06:20:49;;;;;;;17.00;4.60;;;;;;;2.01;86.45;99295.20;103141;1252;138093;-73
2023/01/31 06:23:16;;;;;;;14.30;4.00;;;;;;;2.00;86.18;99297.95;103265;1255;96354;-75
2023/01/31 06:25:43;;;;;;;18.40;4.50;;;;;;;2.00;86.16;99297.96;103216;1255;136677;-73
2023/01/31 06:28:10;;;;;;;19.10;4.60;;;;;;;2.00;86.16;99301.22;103449;1251;108059;-74
2023/01/31 06:30:37;;;;;;;23.40;5.30;;;;;;;2.00;86.28;99301.73;102688;1253;1005951;-74
2023/01/31 06:33:05;;;;;;;17.10;4.60;;;;;;;2.01;86.16;99309.43;103187;1252;137929;-75
2023/01/31 06:35:32;;;;;;;18.50;5.10;;;;;;;2.02;86.06;99313.02;103354;1257;96473;-76
2023/01/31 06:38:02;;;;;;;20.50;5.10;;;;;;;2.04;85.98;99319.67;103237;1251;137732;-76
2023/01/31 06:40:30;;;;;;;23.60;5.30;;;;;;;2.04;85.99;99321.91;103514;1251;107290;-74
2023/01/31 06:42:57;;;;;;;15.40;4.50;;;;;;;2.05;85.76;99323.61;103412;1254;139506;-76
2023/01/31 06:45:25;;;;;;;17.60;4.80;;;;;;;2.06;85.83;99331.48;103348;1252;107732;-76
2023/01/31 06:47:52;;;;;;;20.00;5.00;;;;;;;2.07;85.82;99329.06;102616;1252;1002580;-76
2023/01/31 06:50:20;;;;;;;21.40;4.50;;;;;;;2.08;85.76;99331.96;103332;1252;138137;-77
2023/01/31 06:52:47;;;;;;;20.30;5.20;;;;;;;2.10;85.67;99337.09;102445;1252;1002655;-78
2023/01/31 06:55:14;;;;;;;19.30;4.30;;;;;;;2.10;85.55;99334.84;103237;1251;139891;-73
2023/01/31 06:57:48;;;;;;;16.90;4.30;;;;;;;2.11;85.46;99341.01;102605;1253;1005260;-73
2023/01/31 07:00:18;;;;;;;22.10;4.90;;;;;;;2.14;85.58;99343.02;103298;1256;97653;-76
2023/01/31 07:02:46;;;;;;;14.40;3.90;;;;;;;2.18;85.39;99343.34;103096;1256;137642;-83
2023/01/31 07:05:13;;;;;;;18.60;4.10;;;;;;;2.21;85.14;99347.58;103237;1252;108410;-74
2023/01/31 07:07:42;;;;;;;18.60;4.50;;;;;;;2.23;85.09;99354.59;102448;1252;1003762;-74
2023/01/31 07:10:12;;;;;;;14.80;3.80;;;;;;;2.25;84.94;99352.16;103229;1258;109584;-76
2023/01/31 07:12:44;;;;;;;15.10;3.50;;;;;;;2.26;84.99;99365.35;103686;1252;96551;-75
2023/01/31 07:15:18;;;;;;;18.00;3.90;;;;;;;2.27;84.58;99375.61;103517;1251;109070;-80
2023/01/31 07:17:47;;;;;;;21.00;4.40;;;;;;;2.27;84.44;99382.14;103486;1253;107860;-73
2023/01/31 07:20:15;;;;;;;14.60;3.60;;;;;;;2.28;84.48;99388.64;103112;1256;139018;-77
2023/01/31 07:22:43;;;;;;;11.20;3.00;;;;;;;2.27;84.52;99394.99;103230;1252;106748;-76
2023/01/31 07:25:11;;;;;;;14.80;4.30;;;;;;;2.27;84.63;99397.57;102497;1254;1003763;-78
2023/01/31 07:27:38;;;;;;;13.80;3.20;;;;;;;2.26;84.21;99406.34;103371;1252;109768;-78
2023/01/31 07:30:06;;;;;;;14.80;3.80;;;;;;;2.24;84.10;99405.86;103412;1252;106692;-66
2023/01/31 07:32:33;;;;;;;14.20;3.80;;;;;;;2.26;85.36;99411.49;104147;1252;137963;-65
2023/01/31 07:35:00;;;;;;;15.30;3.70;;;;;;;2.35;85.62;99408.46;103368;1252;107711;-76
2023/01/31 07:37:27;;;;;;;14.80;3.50;;;;;;;2.37;84.85;99409.98;103089;1254;138169;-77
2023/01/31 07:39:57;;;;;;;17.80;3.50;;;;;;;2.38;84.41;99411.18;103261;1252;110016;-77
2023/01/31 07:42:24;;;;;;;15.40;3.30;;;;;;;2.37;84.11;99408.61;103311;1255;107622;-79
2023/01/31 07:44:51;;;;;;;14.10;3.40;;;;;;;2.40;83.98;99422.65;103139;1252;138879;-78
2023/01/31 07:47:18;;;;;;;18.30;4.30;;;;;;;2.41;83.76;99425.04;103252;1257;108872;-78
2023/01/31 07:49:45;;;;;;;11.70;3.10;;;;;;;2.41;83.65;99427.09;103260;1257;138622;-77
2023/01/31 07:52:12;;;;;;;13.40;3.10;;;;;;;2.43;83.65;99428.95;103218;1252;110167;-75
2023/01/31 07:54:39;;;;;;;12.00;3.20;;;;;;;2.46;83.60;99428.74;103288;1252;110058;-76
2023/01/31 07:57:06;;;;;;;15.20;3.60;;;;;;;2.53;83.40;99435.01;103193;1256;138968;-77
2023/01/31 07:59:32;;;;;;;17.80;3.80;;;;;;;2.57;83.18;99445.08;103306;1256;107579;-77
2023/01/31 08:04:45;;;;;;;17.60;3.80;;;;;;;2.65;82.94;99450.12;103497;1256;110087;-75
2023/01/31 08:07:14;;;;;;;10.50;3.30;;;;;;;2.71;82.70;99457.95;103188;1253;137986;-75
2023/01/31 08:09:42;;;;;;;18.50;4.40;;;;;;;2.76;82.53;99456.34;103355;1252;96970;-75
2023/01/31 08:12:09;;;;;;;12.30;3.90;;;;;;;2.82;82.51;99458.48;103916;1252;106821;-76
2023/01/31 08:14:36;;;;;;;20.60;5.10;;;;;;;2.84;82.11;99468.40;102543;1256;1014527;-74
2023/01/31 08:17:03;;;;;;;13.70;4.60;;;;;;;2.86;81.98;99469.23;103432;1252;109381;-75
2023/01/31 08:19:30;;;;;;;13.90;4.30;;;;;;;2.88;81.69;99469.41;103300;1252;138174;-74
2023/01/31 08:21:57;;;;;;;13.00;3.70;;;;;;;2.90;81.50;99473.85;103362;1252;97158;-76
2023/01/31 08:24:24;;;;;;;14.20;4.10;;;;;;;2.93;81.40;99483.06;103370;1252;107147;-76
2023/01/31 08:26:51;;;;;;;15.80;3.90;;;;;;;2.98;81.36;99481.10;103230;1253;138877;-79
2023/01/31 08:29:19;;;;;;;15.20;3.80;;;;;;;3.01;80.93;99483.63;103503;1251;110349;-70
2023/01/31 08:31:45;;;;;;;15.20;3.90;;;;;;;3.01;80.52;99486.89;103264;1252;137776;-72
2023/01/31 08:34:12;;;;;;;11.00;3.60;;;;;;;3.03;80.75;99488.24;103300;1252;96502;-72
2023/01/31 08:36:39;;;;;;;12.40;3.70;;;;;;;3.09;80.56;99488.19;103349;1255;108033;-71
2023/01/31 08:39:07;;;;;;;16.60;3.90;;;;;;;3.12;80.22;99495.69;103672;1252;138224;-70
2023/01/31 08:41:35;;;;;;;13.80;4.00;;;;;;;3.15;80.13;99494.79;103512;1253;109174;-71
2023/01/31 08:44:03;;;;;;;13.10;3.40;;;;;;;3.17;79.97;99501.79;103212;1252;138233;-71
2023/01/31 08:46:32;;;;;;;12.80;3.80;;;;;;;3.22;79.75;99499.99;103381;1252;97172;-71
2023/01/31 08:49:00;;;;;;;13.90;3.80;;;;;;;3.30;79.62;99501.95;103181;1252;137053;-72
2023/01/31 08:51:27;;;;;;;15.70;3.80;;;;;;;3.39;79.44;99497.52;103377;1252;96565;-71
2023/01/31 08:53:55;;;;;;;17.50;4.60;;;;;;;3.46;79.06;99503.27;103323;1257;109579;-71
2023/01/31 08:56:24;;;;;;;13.20;3.70;;;;;;;3.57;78.87;99503.42;103171;1252;138278;-71
2023/01/31 08:58:57;;;;;;;15.00;4.00;;;;;;;3.71;78.60;99498.91;103363;1252;96466;-79
2023/01/31 09:01:24;;;;;;;15.00;4.60;;;;;;;3.79;77.98;99498.80;103232;1252;138649;-79
2023/01/31 09:03:55;;;;;;;9.50;3.00;;;;;;;3.81;77.54;99501.50;103350;1256;97089;-73
2023/01/31 09:06:25;;;;;;;10.10;2.90;;;;;;;3.82;77.19;99504.75;103341;1252;108579;-77
2023/01/31 09:08:53;;;;;;;10.50;2.40;;;;;;;3.85;76.86;99505.55;103192;1255;138766;-80
2023/01/31 09:11:20;;;;;;;12.90;3.30;;;;;;;3.91;76.92;99503.04;103450;1252;95034;-79
2023/01/31 09:13:50;;;;;;;16.00;3.50;;;;;;;3.94;75.89;99502.81;103280;1252;138532;-76
2023/01/31 09:16:17;;;;;;;14.10;3.70;;;;;;;3.89;76.02;99506.69;103822;1252;96337;-76
2023/01/31 09:18:45;;;;;;;14.70;3.30;;;;;;;3.83;75.90;99510.92;103337;1252;110368;-76
2023/01/31 09:21:15;;;;;;;12.40;3.20;;;;;;;3.78;75.95;99517.03;103288;1252;137040;-77
2023/01/31 09:23:42;;;;;;;13.00;3.50;;;;;;;3.72;75.68;99511.95;103385;1252;96601;-77
2023/01/31 09:26:10;;;;;;;14.00;3.10;;;;;;;3.64;75.20;99520.70;102505;1252;1002743;-79
2023/01/31 09:28:38;;;;;;;13.30;3.20;;;;;;;3.55;74.77;99520.13;103277;1252;94854;-77
2023/01/31 09:31:08;;;;;;;11.00;3.00;;;;;;;3.46;75.42;99530.75;103247;1250;139955;-80
2023/01/31 09:33:36;;;;;;;14.90;3.20;;;;;;;3.40;75.24;99535.14;103309;1253;106807;-77
2023/01/31 09:36:05;;;;;;;13.10;3.20;;;;;;;3.36;75.43;99535.88;103375;1252;96545;-73
2023/01/31 09:38:32;;;;;;;11.10;2.80;;;;;;;3.32;75.49;99541.27;103201;1258;138582;-73
2023/01/31 09:41:01;;;;;;;16.80;3.40;;;;;;;3.31;75.71;99541.12;103268;1258;96554;-72
2023/01/31 09:43:41;;;;;;;13.50;3.20;;;;;;;3.28;75.58;99543.22;103181;1256;139248;-71
2023/01/31 09:46:15;;;;;;;14.70;2.80;;;;;;;3.26;75.59;99539.48;103273;1258;107693;-73
2023/01/31 09:48:45;;;;;;;15.70;2.90;;;;;;;3.24;75.52;99542.95;103344;1252;96355;-70
2023/01/31 09:51:14;;;;;;;13.20;3.00;;;;;;;3.24;75.39;99545.69;103195;1253;139065;-73
2023/01/31 09:53:42;;;;;;;12.90;2.80;;;;;;;3.25;75.59;99543.27;103319;1258;96482;-70
2023/01/31 09:56:23;;;;;;;11.50;3.10;;;;;;;3.28;75.21;99553.36;103299;1257;137267;-68
2023/01/31 09:58:57;;;;;;;9.90;3.40;;;;;;;3.29;75.08;99553.34;103302;1252;108765;-73
2023/01/31 10:01:29;;;;;;;14.80;3.70;;;;;;;3.34;75.05;99554.65;103902;1252;137217;-73
2023/01/31 10:04:17;;;;;;;15.20;3.40;;;;;;;3.39;75.07;99546.14;103299;1255;108192;-76
2023/01/31 10:06:49;;;;;;;17.00;4.20;;;;;;;3.41;74.50;99546.81;102627;1257;1002907;-79
2023/01/31 10:09:26;;;;;;;14.30;3.40;;;;;;;3.42;74.05;99547.32;103496;1257;111499;-73
2023/01/31 10:11:59;;;;;;;11.50;3.10;;;;;;;3.47;74.42;99543.47;103360;1252;106749;-73
2023/01/31 10:14:34;;;;;;;11.50;3.70;;;;;;;3.52;74.01;99541.31;103183;1256;138412;-72
2023/01/31 10:17:09;;;;;;;13.70;2.90;;;;;;;3.56;74.01;99540.90;103481;1253;107935;-73
2023/01/31 10:19:44;;;;;;;17.90;3.20;;;;;;;3.61;73.84;99532.60;103258;1256;137982;-72
2023/01/31 10:22:16;;;;;;;18.20;3.40;;;;;;;3.59;72.75;99533.66;103412;1252;110879;-73
2023/01/31 10:24:49;;;;;;;12.10;3.40;;;;;;;3.54;72.47;99539.91;103317;1255;107574;-76
2023/01/31 10:27:21;;;;;;;10.40;3.40;;;;;;;3.50;72.89;99537.92;103405;1252;96948;-75
2023/01/31 10:29:53;;;;;;;11.00;3.40;;;;;;;3.45;73.22;99549.34;103396;1252;107502;-75
2023/01/31 10:32:28;;;;;;;15.80;3.80;;;;;;;3.44;73.10;99543.68;103255;1252;138035;-71
2023/01/31 10:35:01;;;;;;;13.10;3.20;;;;;;;3.45;72.74;99545.58;103324;1257;109535;-73
2023/01/31 10:37:35;;;;;;;13.00;3.60;;;;;;;3.47;73.27;99548.11;103270;1253;138191;-72
2023/01/31 10:40:05;;;;;;;9.30;2.60;;;;;;;3.53;73.25;99546.11;103707;1253;96470;-73
2023/01/31 10:42:35;;;;;;;14.20;3.90;;;;;;;3.58;73.39;99550.50;103479;1256;106812;-72
2023/01/31 10:45:06;;;;;;;11.10;3.10;;;;;;;3.64;73.06;99545.10;103366;1251;138098;-73
2023/01/31 10:47:36;;;;;;;14.10;3.30;;;;;;;3.67;72.24;99540.41;103559;1254;109819;-74
2023/01/31 10:50:12;;;;;;;10.50;2.80;;;;;;;3.68;71.86;99541.78;103301;1252;137532;-77
2023/01/31 10:52:53;;;;;;;11.00;2.80;;;;;;;3.70;71.65;99544.15;103410;1255;96532;-70
2023/01/31 10:55:38;;;;;;;10.30;3.10;;;;;;;3.73;71.94;99546.49;103219;1252;137191;-71
2023/01/31 10:58:09;;;;;;;10.90;3.20;;;;;;;3.77;71.91;99540.94;103315;1252;98559;-71
2023/01/31 11:00:36;;;;;;;13.80;2.90;;;;;;;3.83;71.51;99537.58;103398;1253;109554;-72
2023/01/31 11:03:03;;;;;;;9.70;2.80;;;;;;;3.89;70.96;99532.83;103242;1252;138246;-72
2023/01/31 11:05:31;;;;;;;11.00;3.20;;;;;;;3.93;70.17;99526.90;103338;1252;96413;-72
2023/01/31 11:07:59;;;;;;;8.00;2.40;;;;;;;4.02;70.29;99524.53;103173;1252;137007;-73
2023/01/31 11:10:28;;;;;;;12.10;3.30;;;;;;;4.09;70.69;99526.45;103368;1258;96437;-72
2023/01/31 11:13:00;;;;;;;10.80;2.80;;;;;;;4.14;70.21;99532.92;103335;1252;110433;-72
2023/01/31 11:15:34;;;;;;;11.00;3.20;;;;;;;4.19;70.20;99535.42;103325;1253;108473;-70
2023/01/31 11:18:02;;;;;;;10.70;2.60;;;;;;;4.18;69.75;99529.75;103462;1256;97891;-73
2023/01/31 11:20:32;;;;;;;9.20;2.80;;;;;;;4.16;70.13;99537.37;103351;1253;136945;-72
2023/01/31 11:23:01;;;;;;;16.10;3.00;;;;;;;4.18;69.75;99541.30;103417;1255;96310;-70
2023/01/31 11:25:32;;;;;;;12.70;3.20;;;;;;;4.19;69.35;99542.83;103370;1255;137104;-70
2023/01/31 11:28:03;;;;;;;12.30;2.90;;;;;;;4.16;68.52;99536.17;103493;1253;109242;-72
2023/01/31 11:30:33;;;;;;;9.80;2.80;;;;;;;4.09;67.64;99550.55;103471;1257;96567;-71
2023/01/31 11:33:01;;;;;;;9.10;2.80;;;;;;;3.99;68.57;99560.71;103234;1256;137053;-71
2023/01/31 11:35:30;;;;;;;13.80;3.10;;;;;;;3.95;68.49;99551.48;103370;1252;95061;-73
2023/01/31 11:37:59;;;;;;;9.00;2.90;;;;;;;3.87;68.34;99559.86;102458;1251;1003254;-71
2023/01/31 11:40:32;;;;;;;10.00;2.50;;;;;;;3.81;68.38;99558.25;103442;1254;108397;-71